sensor_id;sensor_type;location;lat;lon;timestamp;P1;durP1;ratioP1;P2;durP2;ratioP2
21581;SDS011;10952;50.836;4.348;2023-03-22T00:00:53;12.20;;;7.67;;
21581;SDS011;10952;50.836;4.348;2023-03-22T00:03:20;15.10;;;7.40;;
21581;SDS011;10952;50.836;4.348;2023-03-22T00:05:47;13.47;;;7.30;;
21581;SDS011;10952;50.836;4.348;2023-03-22T00:08:13;11.93;;;6.90;;
21581;SDS011;10952;50.836;4.348;2023-03-22T00:10:39;11.80;;;7.53;;
21581;SDS011;10952;50.836;4.348;2023-03-22T00:13:06;15.20;;;7.30;;
21581;SDS011;10952;50.836;4.348;2023-03-22T00:15:33;13.40;;;7.27;;
21581;SDS011;10952;50.836;4.348;2023-03-22T00:17:59;13.57;;;7.57;;
21581;SDS011;10952;50.836;4.348;2023-03-22T00:20:26;15.80;;;8.73;;
21581;SDS011;10952;50.836;4.348;2023-03-22T00:22:57;16.17;;;8.33;;
21581;SDS011;10952;50.836;4.348;2023-03-22T00:25:23;13.70;;;7.83;;
21581;SDS011;10952;50.836;4.348;2023-03-22T00:27:49;14.23;;;6.70;;
21581;SDS011;10952;50.836;4.348;2023-03-22T00:30:14;11.33;;;7.23;;
21581;SDS011;10952;50.836;4.348;2023-03-22T00:32:40;15.10;;;7.40;;
21581;SDS011;10952;50.836;4.348;2023-03-22T00:35:07;14.40;;;7.33;;
21581;SDS011;10952;50.836;4.348;2023-03-22T00:37:33;12.83;;;7.20;;
21581;SDS011;10952;50.836;4.348;2023-03-22T00:40:05;13.80;;;8.00;;
21581;SDS011;10952;50.836;4.348;2023-03-22T00:42:36;11.63;;;7.07;;
21581;SDS011;10952;50.836;4.348;2023-03-22T00:45:03;14.27;;;7.53;;
21581;SDS011;10952;50.836;4.348;2023-03-22T00:47:30;13.50;;;7.63;;
21581;SDS011;10952;50.836;4.348;2023-03-22T00:49:56;14.07;;;7.47;;
21581;SDS011;10952;50.836;4.348;2023-03-22T00:52:21;13.00;;;7.03;;
21581;SDS011;10952;50.836;4.348;2023-03-22T00:54:47;15.00;;;8.30;;
21581;SDS011;10952;50.836;4.348;2023-03-22T00:57:13;14.53;;;7.63;;
21581;SDS011;10952;50.836;4.348;2023-03-22T00:59:39;14.87;;;7.23;;
21581;SDS011;10952;50.836;4.348;2023-03-22T01:02:07;16.00;;;7.07;;
21581;SDS011;10952;50.836;4.348;2023-03-22T01:04:33;12.87;;;6.87;;
21581;SDS011;10952;50.836;4.348;2023-03-22T01:07:00;12.87;;;7.20;;
21581;SDS011;10952;50.836;4.348;2023-03-22T01:09:29;13.90;;;7.27;;
21581;SDS011;10952;50.836;4.348;2023-03-22T01:11:58;14.30;;;7.10;;
21581;SDS011;10952;50.836;4.348;2023-03-22T01:14:24;15.27;;;6.53;;
21581;SDS011;10952;50.836;4.348;2023-03-22T01:16:50;13.87;;;6.47;;
21581;SDS011;10952;50.836;4.348;2023-03-22T01:19:21;10.90;;;5.67;;
21581;SDS011;10952;50.836;4.348;2023-03-22T01:21:51;13.43;;;6.50;;
21581;SDS011;10952;50.836;4.348;2023-03-22T01:24:17;11.40;;;6.30;;
21581;SDS011;10952;50.836;4.348;2023-03-22T01:26:42;10.77;;;5.90;;
21581;SDS011;10952;50.836;4.348;2023-03-22T01:29:08;11.90;;;5.80;;
21581;SDS011;10952;50.836;4.348;2023-03-22T01:31:34;9.57;;;5.07;;
21581;SDS011;10952;50.836;4.348;2023-03-22T01:33:59;14.03;;;6.10;;
21581;SDS011;10952;50.836;4.348;2023-03-22T01:36:25;19.03;;;6.33;;
21581;SDS011;10952;50.836;4.348;2023-03-22T01:38:51;13.30;;;5.53;;
21581;SDS011;10952;50.836;4.348;2023-03-22T01:41:17;12.60;;;5.87;;
21581;SDS011;10952;50.836;4.348;2023-03-22T01:43:42;12.07;;;5.50;;
21581;SDS011;10952;50.836;4.348;2023-03-22T01:46:08;9.57;;;6.03;;
21581;SDS011;10952;50.836;4.348;2023-03-22T01:53:27;10.93;;;5.60;;
21581;SDS011;10952;50.836;4.348;2023-03-22T01:55:56;12.07;;;5.30;;
21581;SDS011;10952;50.836;4.348;2023-03-22T01:58:22;11.77;;;5.17;;
21581;SDS011;10952;50.836;4.348;2023-03-22T02:00:48;12.83;;;5.97;;
21581;SDS011;10952;50.836;4.348;2023-03-22T02:03:17;10.97;;;5.50;;
21581;SDS011;10952;50.836;4.348;2023-03-22T02:05:49;11.37;;;4.83;;
21581;SDS011;10952;50.836;4.348;2023-03-22T02:08:16;8.27;;;4.63;;
21581;SDS011;10952;50.836;4.348;2023-03-22T02:10:42;12.27;;;5.60;;
21581;SDS011;10952;50.836;4.348;2023-03-22T02:13:14;10.23;;;5.53;;
21581;SDS011;10952;50.836;4.348;2023-03-22T02:15:56;11.73;;;5.10;;
21581;SDS011;10952;50.836;4.348;2023-03-22T02:40:52;10.70;;;5.10;;
21581;SDS011;10952;50.836;4.348;2023-03-22T02:46:23;12.40;;;5.00;;
21581;SDS011;10952;50.836;4.348;2023-03-22T02:49:04;11.57;;;4.23;;
21581;SDS011;10952;50.836;4.348;2023-03-22T02:51:40;12.87;;;4.63;;
21581;SDS011;10952;50.836;4.348;2023-03-22T02:54:56;14.90;;;5.20;;
21581;SDS011;10952;50.836;4.348;2023-03-22T02:57:10;8.90;;;4.53;;
21581;SDS011;10952;50.836;4.348;2023-03-22T02:59:38;11.50;;;4.40;;
21581;SDS011;10952;50.836;4.348;2023-03-22T03:02:07;9.93;;;4.60;;
21581;SDS011;10952;50.836;4.348;2023-03-22T03:04:37;9.30;;;3.80;;
21581;SDS011;10952;50.836;4.348;2023-03-22T03:07:07;12.53;;;4.57;;
21581;SDS011;10952;50.836;4.348;2023-03-22T03:09:36;12.50;;;4.03;;
21581;SDS011;10952;50.836;4.348;2023-03-22T03:12:08;9.23;;;4.73;;
21581;SDS011;10952;50.836;4.348;2023-03-22T03:14:37;11.27;;;4.37;;
21581;SDS011;10952;50.836;4.348;2023-03-22T03:25:17;8.47;;;3.73;;
21581;SDS011;10952;50.836;4.348;2023-03-22T03:27:54;12.50;;;4.23;;
21581;SDS011;10952;50.836;4.348;2023-03-22T03:30:25;13.80;;;3.53;;
21581;SDS011;10952;50.836;4.348;2023-03-22T03:33:00;11.00;;;3.73;;
21581;SDS011;10952;50.836;4.348;2023-03-22T03:35:35;10.57;;;3.93;;
21581;SDS011;10952;50.836;4.348;2023-03-22T03:38:12;11.27;;;3.30;;
21581;SDS011;10952;50.836;4.348;2023-03-22T03:40:43;14.87;;;4.23;;
21581;SDS011;10952;50.836;4.348;2023-03-22T03:43:12;7.97;;;3.43;;
21581;SDS011;10952;50.836;4.348;2023-03-22T03:45:39;11.47;;;3.43;;
21581;SDS011;10952;50.836;4.348;2023-03-22T03:48:07;10.60;;;3.97;;
21581;SDS011;10952;50.836;4.348;2023-03-22T03:50:37;13.60;;;3.17;;
21581;SDS011;10952;50.836;4.348;2023-03-22T03:53:03;12.47;;;3.83;;
21581;SDS011;10952;50.836;4.348;2023-03-22T03:55:29;9.87;;;4.03;;
21581;SDS011;10952;50.836;4.348;2023-03-22T03:57:55;11.30;;;4.23;;
21581;SDS011;10952;50.836;4.348;2023-03-22T04:00:21;8.90;;;3.60;;
21581;SDS011;10952;50.836;4.348;2023-03-22T04:02:46;15.63;;;4.63;;
21581;SDS011;10952;50.836;4.348;2023-03-22T04:05:13;12.47;;;3.90;;
21581;SDS011;10952;50.836;4.348;2023-03-22T04:07:39;11.97;;;3.80;;
21581;SDS011;10952;50.836;4.348;2023-03-22T04:10:08;14.00;;;3.70;;
21581;SDS011;10952;50.836;4.348;2023-03-22T04:12:34;10.57;;;3.23;;
21581;SDS011;10952;50.836;4.348;2023-03-22T04:15:00;9.93;;;3.80;;
21581;SDS011;10952;50.836;4.348;2023-03-22T04:17:26;12.90;;;4.13;;
21581;SDS011;10952;50.836;4.348;2023-03-22T04:19:56;11.03;;;4.13;;
21581;SDS011;10952;50.836;4.348;2023-03-22T04:22:22;8.73;;;4.03;;
21581;SDS011;10952;50.836;4.348;2023-03-22T04:24:47;16.07;;;4.10;;
21581;SDS011;10952;50.836;4.348;2023-03-22T04:27:16;13.70;;;4.30;;
21581;SDS011;10952;50.836;4.348;2023-03-22T04:29:43;13.30;;;3.70;;
21581;SDS011;10952;50.836;4.348;2023-03-22T04:32:16;10.87;;;3.90;;
21581;SDS011;10952;50.836;4.348;2023-03-22T04:34:45;11.50;;;4.20;;
21581;SDS011;10952;50.836;4.348;2023-03-22T04:37:11;11.93;;;4.53;;
21581;SDS011;10952;50.836;4.348;2023-03-22T04:39:38;9.07;;;4.63;;
21581;SDS011;10952;50.836;4.348;2023-03-22T04:42:03;12.53;;;4.80;;
21581;SDS011;10952;50.836;4.348;2023-03-22T04:44:29;10.90;;;4.07;;
21581;SDS011;10952;50.836;4.348;2023-03-22T04:46:55;12.67;;;4.93;;
21581;SDS011;10952;50.836;4.348;2023-03-22T04:49:20;12.93;;;5.17;;
21581;SDS011;10952;50.836;4.348;2023-03-22T04:51:46;14.23;;;5.43;;
21581;SDS011;10952;50.836;4.348;2023-03-22T04:54:12;10.97;;;4.70;;
21581;SDS011;10952;50.836;4.348;2023-03-22T04:56:37;14.03;;;5.03;;
21581;SDS011;10952;50.836;4.348;2023-03-22T04:59:03;15.43;;;4.27;;
21581;SDS011;10952;50.836;4.348;2023-03-22T05:01:29;10.13;;;4.30;;
21581;SDS011;10952;50.836;4.348;2023-03-22T05:03:54;14.37;;;5.30;;
21581;SDS011;10952;50.836;4.348;2023-03-22T05:06:20;15.23;;;4.30;;
21581;SDS011;10952;50.836;4.348;2023-03-22T05:08:45;17.90;;;4.27;;
21581;SDS011;10952;50.836;4.348;2023-03-22T05:11:13;17.27;;;5.20;;
21581;SDS011;10952;50.836;4.348;2023-03-22T05:13:40;12.27;;;4.03;;
21581;SDS011;10952;50.836;4.348;2023-03-22T05:16:06;9.73;;;3.87;;
21581;SDS011;10952;50.836;4.348;2023-03-22T05:18:33;17.90;;;4.47;;
21581;SDS011;10952;50.836;4.348;2023-03-22T05:21:02;11.23;;;3.70;;
21581;SDS011;10952;50.836;4.348;2023-03-22T05:23:30;13.63;;;3.73;;
21581;SDS011;10952;50.836;4.348;2023-03-22T05:25:56;19.33;;;3.83;;
21581;SDS011;10952;50.836;4.348;2023-03-22T05:28:22;13.53;;;3.70;;
21581;SDS011;10952;50.836;4.348;2023-03-22T05:30:50;12.80;;;3.50;;
21581;SDS011;10952;50.836;4.348;2023-03-22T05:33:16;12.30;;;3.10;;
21581;SDS011;10952;50.836;4.348;2023-03-22T05:35:46;11.37;;;3.20;;
21581;SDS011;10952;50.836;4.348;2023-03-22T05:38:12;11.43;;;3.20;;
21581;SDS011;10952;50.836;4.348;2023-03-22T05:40:38;12.37;;;3.40;;
21581;SDS011;10952;50.836;4.348;2023-03-22T05:43:03;8.70;;;3.03;;
21581;SDS011;10952;50.836;4.348;2023-03-22T05:45:29;14.30;;;3.63;;
21581;SDS011;10952;50.836;4.348;2023-03-22T05:47:56;11.53;;;2.90;;
21581;SDS011;10952;50.836;4.348;2023-03-22T05:50:22;9.20;;;3.37;;
21581;SDS011;10952;50.836;4.348;2023-03-22T05:52:48;15.23;;;3.10;;
21581;SDS011;10952;50.836;4.348;2023-03-22T05:55:16;8.60;;;2.43;;
21581;SDS011;10952;50.836;4.348;2023-03-22T05:57:42;11.93;;;2.90;;
21581;SDS011;10952;50.836;4.348;2023-03-22T06:00:11;12.37;;;2.40;;
21581;SDS011;10952;50.836;4.348;2023-03-22T06:02:42;6.50;;;2.33;;
21581;SDS011;10952;50.836;4.348;2023-03-22T06:05:11;13.27;;;2.47;;
21581;SDS011;10952;50.836;4.348;2023-03-22T06:07:38;8.50;;;2.27;;
21581;SDS011;10952;50.836;4.348;2023-03-22T06:10:05;12.70;;;2.40;;
21581;SDS011;10952;50.836;4.348;2023-03-22T06:12:32;10.03;;;2.30;;
21581;SDS011;10952;50.836;4.348;2023-03-22T06:14:58;12.80;;;2.67;;
21581;SDS011;10952;50.836;4.348;2023-03-22T06:17:24;11.80;;;2.23;;
21581;SDS011;10952;50.836;4.348;2023-03-22T06:19:51;10.53;;;2.20;;
21581;SDS011;10952;50.836;4.348;2023-03-22T06:22:18;13.97;;;2.37;;
21581;SDS011;10952;50.836;4.348;2023-03-22T06:24:44;7.53;;;2.10;;
21581;SDS011;10952;50.836;4.348;2023-03-22T06:27:09;11.23;;;2.33;;
21581;SDS011;10952;50.836;4.348;2023-03-22T06:29:35;10.30;;;2.10;;
21581;SDS011;10952;50.836;4.348;2023-03-22T06:32:01;15.87;;;2.87;;
21581;SDS011;10952;50.836;4.348;2023-03-22T06:34:27;9.80;;;2.43;;
21581;SDS011;10952;50.836;4.348;2023-03-22T06:36:52;12.20;;;3.77;;
21581;SDS011;10952;50.836;4.348;2023-03-22T06:39:18;9.67;;;2.97;;
21581;SDS011;10952;50.836;4.348;2023-03-22T06:41:45;12.30;;;3.00;;
21581;SDS011;10952;50.836;4.348;2023-03-22T06:44:10;10.67;;;3.50;;
21581;SDS011;10952;50.836;4.348;2023-03-22T06:46:36;14.77;;;3.50;;
21581;SDS011;10952;50.836;4.348;2023-03-22T06:49:02;8.47;;;2.93;;
21581;SDS011;10952;50.836;4.348;2023-03-22T06:51:28;7.87;;;3.10;;
21581;SDS011;10952;50.836;4.348;2023-03-22T06:53:55;15.77;;;3.73;;
21581;SDS011;10952;50.836;4.348;2023-03-22T06:56:21;14.67;;;3.53;;
21581;SDS011;10952;50.836;4.348;2023-03-22T06:58:47;11.47;;;3.77;;
21581;SDS011;10952;50.836;4.348;2023-03-22T07:01:13;14.63;;;2.77;;
21581;SDS011;10952;50.836;4.348;2023-03-22T07:03:38;11.83;;;2.87;;
21581;SDS011;10952;50.836;4.348;2023-03-22T07:06:05;15.67;;;4.23;;
21581;SDS011;10952;50.836;4.348;2023-03-22T07:08:32;11.23;;;2.80;;
21581;SDS011;10952;50.836;4.348;2023-03-22T07:10:59;13.47;;;2.67;;
21581;SDS011;10952;50.836;4.348;2023-03-22T07:13:25;12.60;;;2.80;;
21581;SDS011;10952;50.836;4.348;2023-03-22T07:15:57;9.23;;;2.80;;
21581;SDS011;10952;50.836;4.348;2023-03-22T07:18:24;11.97;;;2.77;;
21581;SDS011;10952;50.836;4.348;2023-03-22T07:20:51;12.47;;;2.80;;
21581;SDS011;10952;50.836;4.348;2023-03-22T07:23:17;16.67;;;2.73;;
21581;SDS011;10952;50.836;4.348;2023-03-22T07:25:43;11.90;;;3.43;;
21581;SDS011;10952;50.836;4.348;2023-03-22T07:28:10;7.63;;;2.17;;
21581;SDS011;10952;50.836;4.348;2023-03-22T07:30:39;8.07;;;2.23;;
21581;SDS011;10952;50.836;4.348;2023-03-22T07:33:05;12.47;;;2.50;;
21581;SDS011;10952;50.836;4.348;2023-03-22T07:35:32;10.83;;;2.50;;
21581;SDS011;10952;50.836;4.348;2023-03-22T07:37:58;12.20;;;3.70;;
21581;SDS011;10952;50.836;4.348;2023-03-22T07:40:24;10.30;;;2.77;;
21581;SDS011;10952;50.836;4.348;2023-03-22T07:42:51;11.17;;;2.47;;
21581;SDS011;10952;50.836;4.348;2023-03-22T07:45:17;14.43;;;2.67;;
21581;SDS011;10952;50.836;4.348;2023-03-22T07:47:43;13.60;;;3.37;;
21581;SDS011;10952;50.836;4.348;2023-03-22T07:50:09;11.23;;;2.60;;
21581;SDS011;10952;50.836;4.348;2023-03-22T07:52:41;13.77;;;2.73;;
21581;SDS011;10952;50.836;4.348;2023-03-22T07:55:08;15.53;;;3.47;;
21581;SDS011;10952;50.836;4.348;2023-03-22T07:57:35;12.60;;;3.50;;
21581;SDS011;10952;50.836;4.348;2023-03-22T08:00:02;14.20;;;3.47;;
21581;SDS011;10952;50.836;4.348;2023-03-22T08:02:34;9.03;;;2.70;;
21581;SDS011;10952;50.836;4.348;2023-03-22T08:05:00;10.70;;;2.40;;
21581;SDS011;10952;50.836;4.348;2023-03-22T08:07:25;13.67;;;2.63;;
21581;SDS011;10952;50.836;4.348;2023-03-22T08:09:51;16.57;;;2.50;;
21581;SDS011;10952;50.836;4.348;2023-03-22T08:12:17;12.93;;;2.40;;
21581;SDS011;10952;50.836;4.348;2023-03-22T08:14:43;12.23;;;2.73;;
21581;SDS011;10952;50.836;4.348;2023-03-22T08:17:14;11.30;;;2.80;;
21581;SDS011;10952;50.836;4.348;2023-03-22T08:19:40;12.43;;;3.00;;
21581;SDS011;10952;50.836;4.348;2023-03-22T08:22:05;14.67;;;3.00;;
21581;SDS011;10952;50.836;4.348;2023-03-22T08:24:32;9.40;;;2.73;;
21581;SDS011;10952;50.836;4.348;2023-03-22T08:26:57;18.30;;;3.23;;
21581;SDS011;10952;50.836;4.348;2023-03-22T08:29:23;8.70;;;2.97;;
21581;SDS011;10952;50.836;4.348;2023-03-22T08:31:49;11.23;;;2.23;;
21581;SDS011;10952;50.836;4.348;2023-03-22T08:34:15;13.40;;;2.87;;
21581;SDS011;10952;50.836;4.348;2023-03-22T08:36:41;15.13;;;3.07;;
21581;SDS011;10952;50.836;4.348;2023-03-22T08:39:07;16.00;;;2.83;;
21581;SDS011;10952;50.836;4.348;2023-03-22T08:41:33;16.00;;;3.07;;
21581;SDS011;10952;50.836;4.348;2023-03-22T08:43:59;16.30;;;2.83;;
21581;SDS011;10952;50.836;4.348;2023-03-22T08:46:25;17.80;;;3.37;;
21581;SDS011;10952;50.836;4.348;2023-03-22T08:48:51;17.60;;;4.00;;
21581;SDS011;10952;50.836;4.348;2023-03-22T08:51:18;11.07;;;2.60;;
21581;SDS011;10952;50.836;4.348;2023-03-22T08:53:45;11.47;;;3.00;;
21581;SDS011;10952;50.836;4.348;2023-03-22T08:56:12;10.97;;;2.97;;
21581;SDS011;10952;50.836;4.348;2023-03-22T08:58:41;12.70;;;3.10;;
21581;SDS011;10952;50.836;4.348;2023-03-22T09:01:13;11.03;;;3.03;;
21581;SDS011;10952;50.836;4.348;2023-03-22T09:03:40;11.30;;;2.97;;
21581;SDS011;10952;50.836;4.348;2023-03-22T09:06:06;7.97;;;2.80;;
21581;SDS011;10952;50.836;4.348;2023-03-22T09:08:32;12.73;;;3.07;;
21581;SDS011;10952;50.836;4.348;2023-03-22T09:10:58;12.87;;;3.00;;
21581;SDS011;10952;50.836;4.348;2023-03-22T09:13:23;9.37;;;2.63;;
21581;SDS011;10952;50.836;4.348;2023-03-22T09:15:50;14.53;;;2.87;;
21581;SDS011;10952;50.836;4.348;2023-03-22T09:18:16;13.07;;;3.70;;
21581;SDS011;10952;50.836;4.348;2023-03-22T09:20:43;12.60;;;3.03;;
21581;SDS011;10952;50.836;4.348;2023-03-22T09:23:10;12.23;;;3.03;;
21581;SDS011;10952;50.836;4.348;2023-03-22T09:25:42;11.10;;;3.63;;
21581;SDS011;10952;50.836;4.348;2023-03-22T09:28:08;12.33;;;3.43;;
21581;SDS011;10952;50.836;4.348;2023-03-22T09:30:34;8.67;;;2.70;;
21581;SDS011;10952;50.836;4.348;2023-03-22T09:33:00;8.97;;;2.70;;
21581;SDS011;10952;50.836;4.348;2023-03-22T09:35:27;10.33;;;3.10;;
21581;SDS011;10952;50.836;4.348;2023-03-22T09:37:53;11.93;;;2.67;;
21581;SDS011;10952;50.836;4.348;2023-03-22T09:40:21;14.57;;;3.07;;
21581;SDS011;10952;50.836;4.348;2023-03-22T09:42:58;11.67;;;2.90;;
21581;SDS011;10952;50.836;4.348;2023-03-22T09:45:33;13.57;;;3.67;;
21581;SDS011;10952;50.836;4.348;2023-03-22T09:48:23;19.70;;;3.97;;
21581;SDS011;10952;50.836;4.348;2023-03-22T09:50:54;12.67;;;3.17;;
21581;SDS011;10952;50.836;4.348;2023-03-22T09:53:21;14.80;;;2.80;;
21581;SDS011;10952;50.836;4.348;2023-03-22T09:58:36;12.60;;;3.20;;
21581;SDS011;10952;50.836;4.348;2023-03-22T10:06:36;8.27;;;2.30;;
21581;SDS011;10952;50.836;4.348;2023-03-22T10:11:44;12.23;;;2.93;;
21581;SDS011;10952;50.836;4.348;2023-03-22T10:16:51;12.07;;;3.10;;
21581;SDS011;10952;50.836;4.348;2023-03-22T10:19:21;10.47;;;3.13;;
21581;SDS011;10952;50.836;4.348;2023-03-22T10:21:52;12.43;;;2.87;;
21581;SDS011;10952;50.836;4.348;2023-03-22T10:24:22;8.60;;;2.50;;
21581;SDS011;10952;50.836;4.348;2023-03-22T10:26:59;9.37;;;2.67;;
21581;SDS011;10952;50.836;4.348;2023-03-22T10:29:45;9.43;;;3.33;;
21581;SDS011;10952;50.836;4.348;2023-03-22T10:32:42;11.70;;;3.60;;
21581;SDS011;10952;50.836;4.348;2023-03-22T10:35:14;9.83;;;2.60;;
21581;SDS011;10952;50.836;4.348;2023-03-22T10:37:40;9.13;;;2.53;;
21581;SDS011;10952;50.836;4.348;2023-03-22T10:40:30;12.47;;;3.00;;
21581;SDS011;10952;50.836;4.348;2023-03-22T10:42:59;10.20;;;3.27;;
21581;SDS011;10952;50.836;4.348;2023-03-22T10:45:38;9.07;;;2.70;;
21581;SDS011;10952;50.836;4.348;2023-03-22T10:48:04;8.70;;;2.40;;
21581;SDS011;10952;50.836;4.348;2023-03-22T10:50:35;7.17;;;2.70;;
21581;SDS011;10952;50.836;4.348;2023-03-22T10:53:05;10.13;;;2.77;;
21581;SDS011;10952;50.836;4.348;2023-03-22T10:55:39;8.83;;;3.00;;
21581;SDS011;10952;50.836;4.348;2023-03-22T10:58:10;10.50;;;2.73;;
21581;SDS011;10952;50.836;4.348;2023-03-22T11:03:55;13.43;;;2.80;;
21581;SDS011;10952;50.836;4.348;2023-03-22T11:06:19;12.30;;;3.03;;
21581;SDS011;10952;50.836;4.348;2023-03-22T11:08:53;8.23;;;2.87;;
21581;SDS011;10952;50.836;4.348;2023-03-22T11:16:29;6.23;;;2.43;;
21581;SDS011;10952;50.836;4.348;2023-03-22T11:18:56;10.20;;;2.50;;
21581;SDS011;10952;50.836;4.348;2023-03-22T11:21:28;14.10;;;3.80;;
21581;SDS011;10952;50.836;4.348;2023-03-22T11:24:05;11.13;;;3.10;;
21581;SDS011;10952;50.836;4.348;2023-03-22T11:26:35;15.80;;;3.13;;
21581;SDS011;10952;50.836;4.348;2023-03-22T11:29:06;12.70;;;3.87;;
21581;SDS011;10952;50.836;4.348;2023-03-22T11:34:35;11.30;;;3.67;;
21581;SDS011;10952;50.836;4.348;2023-03-22T11:37:01;10.53;;;3.80;;
21581;SDS011;10952;50.836;4.348;2023-03-22T11:39:32;15.33;;;3.77;;
21581;SDS011;10952;50.836;4.348;2023-03-22T11:41:58;11.00;;;3.53;;
21581;SDS011;10952;50.836;4.348;2023-03-22T11:44:30;9.83;;;3.97;;
21581;SDS011;10952;50.836;4.348;2023-03-22T11:46:58;10.60;;;3.20;;
21581;SDS011;10952;50.836;4.348;2023-03-22T11:49:27;8.37;;;3.00;;
21581;SDS011;10952;50.836;4.348;2023-03-22T11:52:09;12.77;;;3.77;;
21581;SDS011;10952;50.836;4.348;2023-03-22T11:54:37;13.00;;;3.40;;
21581;SDS011;10952;50.836;4.348;2023-03-22T11:57:03;9.47;;;3.60;;
21581;SDS011;10952;50.836;4.348;2023-03-22T11:59:37;8.33;;;3.03;;
21581;SDS011;10952;50.836;4.348;2023-03-22T12:05:07;13.50;;;4.13;;
21581;SDS011;10952;50.836;4.348;2023-03-22T12:07:38;10.27;;;4.77;;
21581;SDS011;10952;50.836;4.348;2023-03-22T12:10:28;13.03;;;4.00;;
21581;SDS011;10952;50.836;4.348;2023-03-22T12:13:04;13.60;;;4.90;;
21581;SDS011;10952;50.836;4.348;2023-03-22T12:15:41;11.27;;;4.00;;
21581;SDS011;10952;50.836;4.348;2023-03-22T12:18:14;15.77;;;4.03;;
21581;SDS011;10952;50.836;4.348;2023-03-22T12:20:47;12.97;;;4.50;;
21581;SDS011;10952;50.836;4.348;2023-03-22T12:23:15;11.80;;;3.77;;
21581;SDS011;10952;50.836;4.348;2023-03-22T12:25:49;11.73;;;4.70;;
21581;SDS011;10952;50.836;4.348;2023-03-22T12:28:32;11.20;;;5.47;;
21581;SDS011;10952;50.836;4.348;2023-03-22T12:31:21;10.43;;;5.60;;
21581;SDS011;10952;50.836;4.348;2023-03-22T12:33:55;16.33;;;6.23;;
21581;SDS011;10952;50.836;4.348;2023-03-22T12:36:39;16.93;;;6.60;;
21581;SDS011;10952;50.836;4.348;2023-03-22T12:39:12;12.87;;;5.57;;
21581;SDS011;10952;50.836;4.348;2023-03-22T12:41:48;15.57;;;6.77;;
21581;SDS011;10952;50.836;4.348;2023-03-22T12:44:26;14.37;;;5.50;;
21581;SDS011;10952;50.836;4.348;2023-03-22T12:46:58;15.47;;;5.23;;
21581;SDS011;10952;50.836;4.348;2023-03-22T12:52:03;14.90;;;6.70;;
21581;SDS011;10952;50.836;4.348;2023-03-22T12:54:41;12.50;;;6.07;;
21581;SDS011;10952;50.836;4.348;2023-03-22T12:57:08;11.00;;;5.70;;
21581;SDS011;10952;50.836;4.348;2023-03-22T12:59:34;18.90;;;6.90;;
21581;SDS011;10952;50.836;4.348;2023-03-22T13:02:08;14.07;;;6.13;;
21581;SDS011;10952;50.836;4.348;2023-03-22T13:07:09;16.20;;;5.77;;
21581;SDS011;10952;50.836;4.348;2023-03-22T13:09:39;15.33;;;6.27;;
21581;SDS011;10952;50.836;4.348;2023-03-22T13:27:58;19.97;;;6.73;;
21581;SDS011;10952;50.836;4.348;2023-03-22T13:30:28;23.13;;;12.77;;
21581;SDS011;10952;50.836;4.348;2023-03-22T13:38:52;14.10;;;7.63;;
21581;SDS011;10952;50.836;4.348;2023-03-22T13:41:30;14.90;;;6.20;;
21581;SDS011;10952;50.836;4.348;2023-03-22T13:43:58;14.03;;;5.90;;
21581;SDS011;10952;50.836;4.348;2023-03-22T13:51:30;9.53;;;5.03;;
21581;SDS011;10952;50.836;4.348;2023-03-22T13:54:01;13.20;;;6.30;;
21581;SDS011;10952;50.836;4.348;2023-03-22T13:56:33;12.57;;;6.13;;
21581;SDS011;10952;50.836;4.348;2023-03-22T14:04:40;11.53;;;5.77;;
21581;SDS011;10952;50.836;4.348;2023-03-22T14:18:52;16.10;;;6.10;;
21581;SDS011;10952;50.836;4.348;2023-03-22T14:21:20;21.20;;;9.57;;
21581;SDS011;10952;50.836;4.348;2023-03-22T14:23:53;12.33;;;5.93;;
21581;SDS011;10952;50.836;4.348;2023-03-22T14:26:21;13.97;;;6.47;;
21581;SDS011;10952;50.836;4.348;2023-03-22T14:29:03;13.07;;;6.10;;
21581;SDS011;10952;50.836;4.348;2023-03-22T14:31:30;17.43;;;6.37;;
21581;SDS011;10952;50.836;4.348;2023-03-22T14:34:00;13.60;;;5.40;;
21581;SDS011;10952;50.836;4.348;2023-03-22T14:36:28;13.20;;;5.93;;
21581;SDS011;10952;50.836;4.348;2023-03-22T14:39:05;15.07;;;5.57;;
21581;SDS011;10952;50.836;4.348;2023-03-22T14:41:54;15.53;;;6.20;;
21581;SDS011;10952;50.836;4.348;2023-03-22T14:44:20;13.03;;;6.10;;
21581;SDS011;10952;50.836;4.348;2023-03-22T14:46:46;10.93;;;5.53;;
21581;SDS011;10952;50.836;4.348;2023-03-22T14:49:13;11.00;;;5.00;;
21581;SDS011;10952;50.836;4.348;2023-03-22T14:51:41;11.33;;;5.40;;
21581;SDS011;10952;50.836;4.348;2023-03-22T14:54:09;16.93;;;6.10;;
21581;SDS011;10952;50.836;4.348;2023-03-22T14:56:42;12.63;;;5.53;;
21581;SDS011;10952;50.836;4.348;2023-03-22T14:59:13;13.80;;;5.40;;
21581;SDS011;10952;50.836;4.348;2023-03-22T15:01:42;14.77;;;5.60;;
21581;SDS011;10952;50.836;4.348;2023-03-22T15:04:17;20.57;;;8.23;;
21581;SDS011;10952;50.836;4.348;2023-03-22T15:06:46;8.80;;;5.07;;
21581;SDS011;10952;50.836;4.348;2023-03-22T15:09:16;11.20;;;5.43;;
21581;SDS011;10952;50.836;4.348;2023-03-22T15:11:44;11.37;;;5.57;;
21581;SDS011;10952;50.836;4.348;2023-03-22T15:14:11;13.30;;;5.43;;
21581;SDS011;10952;50.836;4.348;2023-03-22T15:16:38;7.80;;;5.07;;
21581;SDS011;10952;50.836;4.348;2023-03-22T15:19:07;19.07;;;5.50;;
21581;SDS011;10952;50.836;4.348;2023-03-22T15:21:37;7.47;;;5.10;;
21581;SDS011;10952;50.836;4.348;2023-03-22T15:26:48;7.90;;;5.17;;
21581;SDS011;10952;50.836;4.348;2023-03-22T15:29:14;17.57;;;6.30;;
21581;SDS011;10952;50.836;4.348;2023-03-22T15:31:44;12.93;;;6.07;;
21581;SDS011;10952;50.836;4.348;2023-03-22T15:34:18;13.47;;;6.10;;
21581;SDS011;10952;50.836;4.348;2023-03-22T15:36:47;11.93;;;5.90;;
21581;SDS011;10952;50.836;4.348;2023-03-22T15:41:42;11.50;;;5.57;;
21581;SDS011;10952;50.836;4.348;2023-03-22T15:46:47;16.10;;;6.00;;
21581;SDS011;10952;50.836;4.348;2023-03-22T15:49:37;14.20;;;5.70;;
21581;SDS011;10952;50.836;4.348;2023-03-22T15:58:01;13.03;;;5.40;;
21581;SDS011;10952;50.836;4.348;2023-03-22T16:00:28;12.23;;;5.77;;
21581;SDS011;10952;50.836;4.348;2023-03-22T16:05:23;12.80;;;5.23;;
21581;SDS011;10952;50.836;4.348;2023-03-22T16:07:50;11.43;;;5.20;;
21581;SDS011;10952;50.836;4.348;2023-03-22T16:10:19;13.03;;;5.07;;
21581;SDS011;10952;50.836;4.348;2023-03-22T16:12:46;11.23;;;5.47;;
21581;SDS011;10952;50.836;4.348;2023-03-22T16:15:16;11.73;;;4.90;;
21581;SDS011;10952;50.836;4.348;2023-03-22T16:17:46;11.23;;;5.17;;
21581;SDS011;10952;50.836;4.348;2023-03-22T16:20:13;16.13;;;5.53;;
21581;SDS011;10952;50.836;4.348;2023-03-22T16:22:40;14.87;;;5.53;;
21581;SDS011;10952;50.836;4.348;2023-03-22T16:25:09;13.53;;;5.10;;
21581;SDS011;10952;50.836;4.348;2023-03-22T16:27:40;14.20;;;5.00;;
21581;SDS011;10952;50.836;4.348;2023-03-22T16:30:06;12.33;;;5.43;;
21581;SDS011;10952;50.836;4.348;2023-03-22T16:32:33;13.17;;;4.80;;
21581;SDS011;10952;50.836;4.348;2023-03-22T16:34:58;13.77;;;5.97;;
21581;SDS011;10952;50.836;4.348;2023-03-22T16:37:24;13.07;;;5.47;;
21581;SDS011;10952;50.836;4.348;2023-03-22T16:39:51;16.47;;;6.00;;
21581;SDS011;10952;50.836;4.348;2023-03-22T16:42:18;17.30;;;5.77;;
21581;SDS011;10952;50.836;4.348;2023-03-22T16:44:45;12.87;;;5.63;;
21581;SDS011;10952;50.836;4.348;2023-03-22T16:47:13;12.17;;;5.73;;
21581;SDS011;10952;50.836;4.348;2023-03-22T16:49:40;13.10;;;5.90;;
21581;SDS011;10952;50.836;4.348;2023-03-22T16:52:11;11.77;;;5.57;;
21581;SDS011;10952;50.836;4.348;2023-03-22T16:54:42;15.17;;;6.33;;
21581;SDS011;10952;50.836;4.348;2023-03-22T16:57:12;13.60;;;5.40;;